Terminal Aerodrome Forecast
Issued by NWS

Home | Current Version | Previous Version | Text Only | Print | Product List | Glossary On
Versions: 1 2 3 4 5 6 7 8 9 10 11 12 13 14 15 16 17 18 19 20 21 22 23 24 25
977
FTUS43 KGRB 190520
TAFMTW
TAF
KMTW 190520Z 1906/2006 03004KT P6SM -SHRA OVC035
     FM190800 06004KT P6SM -SHRA SCT012 OVC024
      TEMPO 1910/1914 3SM -RA BR BKN012
     FM191500 03005KT P6SM BKN024
     FM191900 29005KT P6SM BKN035
     FM200200 02008KT P6SM BKN035=

USA.gov is the U.S. government's official web portal to all federal, state and local government web resources and services.